createdAt,value
2018-01-17T00:00:45.842Z,988.8
2018-01-17T00:01:46.045Z,988.77
2018-01-17T00:02:46.667Z,988.77
2018-01-17T00:03:46.551Z,988.78
2018-01-17T00:04:46.576Z,988.77
2018-01-17T00:05:47.029Z,988.78
2018-01-17T00:06:46.598Z,988.75
2018-01-17T00:07:46.696Z,988.83
2018-01-17T00:08:46.717Z,988.75
2018-01-17T00:09:46.745Z,988.81
2018-01-17T00:10:46.938Z,988.76
2018-01-17T00:11:46.976Z,988.82
2018-01-17T00:12:47.100Z,988.8
2018-01-17T00:13:47.150Z,988.82
2018-01-17T00:14:47.434Z,988.78
2018-01-17T00:15:47.582Z,988.78
2018-01-17T00:16:47.755Z,988.83
2018-01-17T00:17:47.854Z,988.77
2018-01-17T00:18:47.794Z,988.76
2018-01-17T00:19:47.807Z,988.77
2018-01-17T00:20:47.832Z,988.74
2018-01-17T00:21:47.893Z,988.74
2018-01-17T00:22:47.876Z,988.64
2018-01-17T00:23:47.986Z,988.69
2018-01-17T00:24:48.428Z,988.67
2018-01-17T00:25:48.537Z,988.69
2018-01-17T00:26:48.574Z,988.65
2018-01-17T00:27:48.579Z,988.66
2018-01-17T00:28:48.609Z,988.6
2018-01-17T00:29:48.789Z,988.61
2018-01-17T00:30:48.792Z,988.66
2018-01-17T00:31:48.963Z,988.64
2018-01-17T00:32:48.969Z,988.61
2018-01-17T00:33:48.998Z,988.59
2018-01-17T00:34:49.036Z,988.6
2018-01-17T00:35:49.206Z,988.6
2018-01-17T00:36:49.713Z,988.62
2018-01-17T00:37:49.599Z,988.57
2018-01-17T00:38:49.620Z,988.57
2018-01-17T00:39:49.654Z,988.61
2018-01-17T00:40:49.738Z,988.57
2018-01-17T00:41:49.859Z,988.61
2018-01-17T00:42:49.901Z,988.63
2018-01-17T00:43:50.076Z,988.59
2018-01-17T00:44:50.081Z,988.56
2018-01-17T00:45:50.473Z,988.6
2018-01-17T00:46:50.597Z,988.56
2018-01-17T00:47:50.596Z,988.59
2018-01-17T00:48:50.728Z,988.58
2018-01-17T00:49:51.010Z,988.59
2018-01-17T00:50:51.102Z,988.52
2018-01-17T00:51:51.052Z,988.48
2018-01-17T00:52:51.502Z,988.49
2018-01-17T00:53:51.436Z,988.53
2018-01-17T00:54:51.354Z,988.51
2018-01-17T00:55:51.140Z,988.51
2018-01-17T00:56:51.407Z,988.52
2018-01-17T00:57:51.393Z,988.5
2018-01-17T00:58:51.443Z,988.49
2018-01-17T00:59:51.550Z,988.47
2018-01-17T01:00:51.605Z,988.47
2018-01-17T01:01:51.627Z,988.46
2018-01-17T01:02:51.609Z,988.46
2018-01-17T01:03:51.632Z,988.46
2018-01-17T01:04:51.743Z,988.47
2018-01-17T01:05:52.158Z,988.48
2018-01-17T01:06:52.386Z,988.45
2018-01-17T01:07:52.556Z,988.48
2018-01-17T01:08:52.567Z,988.43
2018-01-17T01:09:52.708Z,988.41
2018-01-17T01:10:52.835Z,988.46
2018-01-17T01:11:52.867Z,988.5
2018-01-17T01:12:52.877Z,988.5
2018-01-17T01:13:52.905Z,988.51
2018-01-17T01:14:53.469Z,988.49
2018-01-17T01:15:53.500Z,988.46
2018-01-17T01:16:53.729Z,988.45
2018-01-17T01:17:53.773Z,988.47
2018-01-17T01:18:54.193Z,988.45
2018-01-17T01:19:53.829Z,988.37
2018-01-17T01:20:53.860Z,988.43
2018-01-17T01:21:53.842Z,988.41
2018-01-17T01:22:54.197Z,988.43
2018-01-17T01:23:54.218Z,988.46
2018-01-17T01:24:54.235Z,988.43
2018-01-17T01:25:54.278Z,988.48
2018-01-17T01:26:54.285Z,988.48
2018-01-17T01:27:54.304Z,988.42
2018-01-17T01:28:54.344Z,988.43
2018-01-17T01:29:54.766Z,988.41
2018-01-17T01:30:54.824Z,988.43
2018-01-17T01:31:54.942Z,988.46
2018-01-17T01:32:55.592Z,988.41
2018-01-17T01:33:56.002Z,988.38
2018-01-17T01:34:56.398Z,988.39
2018-01-17T01:35:56.546Z,988.38
2018-01-17T01:36:56.555Z,988.38
2018-01-17T01:37:56.596Z,988.36
2018-01-17T01:38:56.607Z,988.39
2018-01-17T01:39:57.030Z,988.42
2018-01-17T01:40:57.074Z,988.36
2018-01-17T01:41:57.095Z,988.39
2018-01-17T01:42:57.114Z,988.43
2018-01-17T01:43:57.403Z,988.39
2018-01-17T01:44:57.510Z,988.35
2018-01-17T01:45:57.780Z,988.34
2018-01-17T01:46:58.169Z,988.42
2018-01-17T01:47:58.636Z,988.42
2018-01-17T01:48:58.673Z,988.48
2018-01-17T01:49:58.698Z,988.42
2018-01-17T01:50:58.808Z,988.44
2018-01-17T01:51:58.998Z,988.4
2018-01-17T01:52:59.030Z,988.37
2018-01-17T01:53:59.435Z,988.42
2018-01-17T01:54:59.092Z,988.42
2018-01-17T01:55:59.158Z,988.44
2018-01-17T01:56:59.113Z,988.46
2018-01-17T01:57:59.496Z,988.45
2018-01-17T01:58:59.720Z,988.44
2018-01-17T01:59:59.607Z,988.44
2018-01-17T02:00:59.605Z,988.48
2018-01-17T02:02:01.022Z,988.42
2018-01-17T02:03:01.017Z,988.47
2018-01-17T02:04:00.594Z,988.43
2018-01-17T02:05:00.611Z,988.48
2018-01-17T02:06:01.039Z,988.42
2018-01-17T02:07:01.131Z,988.38
2018-01-17T02:08:01.073Z,988.39
2018-01-17T02:09:01.086Z,988.36
2018-01-17T02:10:01.288Z,988.34
2018-01-17T02:11:01.114Z,988.38
2018-01-17T02:12:01.120Z,988.33
2018-01-17T02:13:01.140Z,988.29
2018-01-17T02:14:01.587Z,988.32
2018-01-17T02:15:01.616Z,988.29
2018-01-17T02:16:01.646Z,988.3
2018-01-17T02:17:01.645Z,988.31
2018-01-17T02:18:02.125Z,988.34
2018-01-17T02:19:02.144Z,988.36
2018-01-17T02:20:02.580Z,988.33
2018-01-17T02:21:02.610Z,988.31
2018-01-17T02:22:02.632Z,988.3
2018-01-17T02:23:02.648Z,988.32
2018-01-17T02:24:02.883Z,988.26
2018-01-17T02:25:02.898Z,988.26
2018-01-17T02:26:02.924Z,988.3
2018-01-17T02:27:02.946Z,988.37
2018-01-17T02:28:02.971Z,988.37
2018-01-17T02:29:03.162Z,988.4
2018-01-17T02:30:03.446Z,988.37
2018-01-17T02:31:03.568Z,988.3
2018-01-17T02:32:03.622Z,988.28
2018-01-17T02:33:03.844Z,988.32
2018-01-17T02:34:03.852Z,988.27
2018-01-17T02:35:03.661Z,988.29
2018-01-17T02:36:03.679Z,988.31
2018-01-17T02:37:03.911Z,988.26
2018-01-17T02:38:03.930Z,988.27
2018-01-17T02:39:04.208Z,988.24
2018-01-17T02:40:04.602Z,988.23
2018-01-17T02:41:04.605Z,988.21
2018-01-17T02:42:04.628Z,988.27
2018-01-17T02:43:04.616Z,988.24
2018-01-17T02:44:04.661Z,988.24
2018-01-17T02:45:04.909Z,988.28
2018-01-17T02:46:06.214Z,988.29
2018-01-17T02:47:05.664Z,988.28
2018-01-17T02:48:05.684Z,988.34
2018-01-17T02:49:05.917Z,988.25
2018-01-17T02:50:06.223Z,988.25
2018-01-17T02:51:06.410Z,988.23
2018-01-17T02:52:06.860Z,988.26
2018-01-17T02:53:07.309Z,988.23
2018-01-17T02:54:07.485Z,988.23
2018-01-17T02:55:07.390Z,988.24
2018-01-17T02:56:07.372Z,988.18
2018-01-17T02:57:07.592Z,988.2
2018-01-17T02:58:07.604Z,988.21
2018-01-17T02:59:07.643Z,988.24
2018-01-17T03:00:22.437Z,988.23
2018-01-17T03:01:22.689Z,988.18
2018-01-17T03:02:22.682Z,988.22
2018-01-17T03:03:22.873Z,988.23
2018-01-17T03:04:22.862Z,988.22
2018-01-17T03:05:22.887Z,988.2
2018-01-17T03:06:23.319Z,988.19
2018-01-17T03:07:23.349Z,988.27
2018-01-17T03:08:23.363Z,988.29
2018-01-17T03:09:23.796Z,988.24
2018-01-17T03:10:24.234Z,988.27
2018-01-17T03:11:24.245Z,988.23
2018-01-17T03:12:24.672Z,988.23
2018-01-17T03:13:24.675Z,988.28
2018-01-17T03:14:24.702Z,988.31
2018-01-17T03:15:25.130Z,988.32
2018-01-17T03:16:25.348Z,988.34
2018-01-17T03:17:25.362Z,988.27
2018-01-17T03:18:25.781Z,988.26
2018-01-17T03:19:25.809Z,988.29
2018-01-17T03:20:25.823Z,988.32
2018-01-17T03:21:26.226Z,988.27
2018-01-17T03:22:26.248Z,988.28
2018-01-17T03:23:26.262Z,988.22
2018-01-17T03:24:26.285Z,988.3
2018-01-17T03:25:26.304Z,988.22
2018-01-17T03:26:26.326Z,988.14
2018-01-17T03:27:26.796Z,988.21
2018-01-17T03:28:26.951Z,988.17
2018-01-17T03:29:26.981Z,988.17
2018-01-17T03:30:26.994Z,988.2
2018-01-17T03:31:27.024Z,988.19
2018-01-17T03:32:27.024Z,988.2
2018-01-17T03:33:27.587Z,988.23
2018-01-17T03:34:28.025Z,988.18
2018-01-17T03:35:28.017Z,988.2
2018-01-17T03:36:28.043Z,988.18
2018-01-17T03:37:28.179Z,988.17
2018-01-17T03:38:28.345Z,988.17
2018-01-17T03:39:28.642Z,988.19
2018-01-17T03:40:28.621Z,988.12
2018-01-17T03:41:28.650Z,988.09
2018-01-17T03:42:28.679Z,988.11
2018-01-17T03:43:29.109Z,988.14
2018-01-17T03:44:29.145Z,988.06
2018-01-17T03:45:29.131Z,988.01
2018-01-17T03:46:29.351Z,988.04
2018-01-17T03:47:29.922Z,988.02
2018-01-17T03:48:29.883Z,987.98
2018-01-17T03:49:29.879Z,987.96
2018-01-17T03:50:30.463Z,987.98
2018-01-17T03:51:29.978Z,987.96
2018-01-17T03:52:29.889Z,987.97
2018-01-17T03:53:30.095Z,988.03
2018-01-17T03:54:30.130Z,987.99
2018-01-17T03:55:30.282Z,987.98
2018-01-17T03:56:30.469Z,987.95
2018-01-17T03:57:30.499Z,987.96
2018-01-17T03:58:30.944Z,988
2018-01-17T03:59:30.987Z,988.05
2018-01-17T04:00:31.090Z,988.06
2018-01-17T04:01:30.991Z,988.05
2018-01-17T04:02:31.013Z,988.12
2018-01-17T04:03:31.376Z,988.09
2018-01-17T04:04:31.391Z,988.07
2018-01-17T04:05:31.555Z,988.12
2018-01-17T04:06:31.753Z,988.11
2018-01-17T04:07:31.920Z,988.12
2018-01-17T04:08:32.055Z,988.1
2018-01-17T04:09:32.075Z,988.15
2018-01-17T04:10:32.098Z,988.14
2018-01-17T04:11:32.181Z,988.16
2018-01-17T04:12:32.186Z,988.11
2018-01-17T04:13:32.279Z,988.07
2018-01-17T04:14:32.276Z,988.08
2018-01-17T04:15:32.439Z,988.09
2018-01-17T04:16:32.836Z,988.07
2018-01-17T04:17:32.648Z,988.04
2018-01-17T04:18:32.698Z,988.08
2018-01-17T04:19:32.835Z,988.09
2018-01-17T04:20:32.858Z,988.14
2018-01-17T04:21:32.912Z,988.1
2018-01-17T04:22:32.898Z,988.1
2018-01-17T04:23:33.037Z,988.13
2018-01-17T04:24:33.199Z,988.08
2018-01-17T04:25:33.262Z,988.09
2018-01-17T04:26:33.258Z,988.1
2018-01-17T04:27:33.262Z,988.06
2018-01-17T04:28:33.299Z,988.06
2018-01-17T04:29:33.388Z,988.02
2018-01-17T04:30:33.380Z,988.05
2018-01-17T04:31:33.401Z,988.02
2018-01-17T04:32:33.377Z,988.07
2018-01-17T04:33:33.384Z,988.06
2018-01-17T04:34:33.479Z,988.07
2018-01-17T04:35:33.521Z,988.05
2018-01-17T04:36:33.878Z,988.09
2018-01-17T04:37:34.046Z,988.11
2018-01-17T04:38:34.129Z,988.06
2018-01-17T04:39:34.259Z,988.11
2018-01-17T04:40:34.280Z,988.06
2018-01-17T04:41:34.305Z,988.08
2018-01-17T04:42:34.525Z,988.08
2018-01-17T04:43:34.611Z,988.03
2018-01-17T04:44:35.003Z,988.06
2018-01-17T04:45:34.997Z,988.1
2018-01-17T04:46:35.160Z,988.03
2018-01-17T04:47:35.321Z,988.02
2018-01-17T04:48:35.672Z,988.05
2018-01-17T04:49:36.364Z,988.08
2018-01-17T04:50:36.623Z,988.14
2018-01-17T04:51:36.301Z,988.13
2018-01-17T04:52:36.277Z,988.14
2018-01-17T04:53:36.291Z,988.11
2018-01-17T04:54:36.375Z,988.12
2018-01-17T04:55:36.322Z,988.14
2018-01-17T04:56:36.379Z,988.11
2018-01-17T04:57:36.578Z,988.19
2018-01-17T04:58:36.891Z,988.17
2018-01-17T04:59:36.876Z,988.1
2018-01-17T05:01:36.938Z,988.12
2018-01-17T05:02:37.385Z,988.11
2018-01-17T05:03:37.407Z,988.15
2018-01-17T05:04:37.746Z,988.16
2018-01-17T05:05:37.716Z,988.08
2018-01-17T05:06:37.736Z,988.08
2018-01-17T05:07:37.755Z,988.1
2018-01-17T05:08:37.963Z,988.11
2018-01-17T05:09:37.959Z,988.09
2018-01-17T05:10:38.002Z,988.08
2018-01-17T05:11:38.015Z,988.13
2018-01-17T05:12:38.208Z,988.1
2018-01-17T05:13:38.231Z,988.06
2018-01-17T05:14:38.254Z,988.02
2018-01-17T05:15:38.279Z,988.1
2018-01-17T05:16:38.291Z,988.06
2018-01-17T05:17:38.457Z,988
2018-01-17T05:18:38.514Z,988
2018-01-17T05:19:38.714Z,987.97
2018-01-17T05:20:38.773Z,987.98
2018-01-17T05:21:38.791Z,988.02
2018-01-17T05:22:38.826Z,987.96
2018-01-17T05:23:38.913Z,988.03
2018-01-17T05:24:38.845Z,987.96
2018-01-17T05:25:39.168Z,987.94
2018-01-17T05:26:39.191Z,987.9
2018-01-17T05:27:39.413Z,987.91
2018-01-17T05:28:39.237Z,987.93
2018-01-17T05:29:39.269Z,987.86
2018-01-17T05:30:39.300Z,987.88
2018-01-17T05:31:39.765Z,987.91
2018-01-17T05:32:39.708Z,987.87
2018-01-17T05:33:39.845Z,987.92
2018-01-17T05:34:44.866Z,987.89
2018-01-17T05:35:45.112Z,987.91
2018-01-17T05:36:45.124Z,987.92
2018-01-17T05:37:45.361Z,987.93
2018-01-17T05:38:45.368Z,987.92
2018-01-17T05:39:45.822Z,987.94
2018-01-17T05:40:46.012Z,987.89
2018-01-17T05:41:46.356Z,987.94
2018-01-17T05:42:46.570Z,987.95
2018-01-17T05:43:46.592Z,987.94
2018-01-17T05:44:46.821Z,987.95
2018-01-17T05:45:46.665Z,987.9
2018-01-17T05:46:46.694Z,987.95
2018-01-17T05:47:46.725Z,987.9
2018-01-17T05:48:46.920Z,987.93
2018-01-17T05:49:46.743Z,987.93
2018-01-17T05:50:46.813Z,987.93
2018-01-17T05:51:46.788Z,987.94
2018-01-17T05:52:47.408Z,987.98
2018-01-17T05:53:47.247Z,987.96
2018-01-17T05:54:47.557Z,987.96
2018-01-17T05:55:47.318Z,987.99
2018-01-17T05:56:47.316Z,987.99
2018-01-17T05:57:48.264Z,988.06
2018-01-17T05:58:47.905Z,988.11
2018-01-17T05:59:47.921Z,988.08
2018-01-17T06:00:47.939Z,988.07
2018-01-17T06:01:48.248Z,988.11
2018-01-17T06:02:48.188Z,988.08
2018-01-17T06:03:48.027Z,988.09
2018-01-17T06:04:48.040Z,988.07
2018-01-17T06:05:48.091Z,988.11
2018-01-17T06:06:48.234Z,988.06
2018-01-17T06:07:48.756Z,988.11
2018-01-17T06:08:49.045Z,988.11
2018-01-17T06:09:49.220Z,988.14
2018-01-17T06:10:49.226Z,988.1
2018-01-17T06:11:49.267Z,988.1
2018-01-17T06:12:49.296Z,988.1
2018-01-17T06:13:49.446Z,988.11
2018-01-17T06:14:49.447Z,988.13
2018-01-17T06:15:49.480Z,988.13
2018-01-17T06:16:49.505Z,988.12
2018-01-17T06:17:49.547Z,988.13
2018-01-17T06:18:49.583Z,988.12
2018-01-17T06:19:49.575Z,988.15
2018-01-17T06:20:49.612Z,988.12
2018-01-17T06:21:49.636Z,988.15
2018-01-17T06:22:49.687Z,988.15
2018-01-17T06:23:50.911Z,988.21
2018-01-17T06:24:51.113Z,988.16
2018-01-17T06:25:51.002Z,988.1
2018-01-17T06:26:50.667Z,988.19
2018-01-17T06:27:51.093Z,988.19
2018-01-17T06:28:50.717Z,988.15
2018-01-17T06:29:50.789Z,988.13
2018-01-17T06:30:50.756Z,988.23
2018-01-17T06:31:50.805Z,988.15
2018-01-17T06:32:50.811Z,988.15
2018-01-17T06:33:50.837Z,988.2
2018-01-17T06:34:50.842Z,988.18
2018-01-17T06:35:51.237Z,988.22
2018-01-17T06:36:51.379Z,988.2
2018-01-17T06:37:51.305Z,988.2
2018-01-17T06:38:51.309Z,988.26
2018-01-17T06:39:51.327Z,988.27
2018-01-17T06:40:51.462Z,988.23
2018-01-17T06:41:51.963Z,988.24
2018-01-17T06:42:52.051Z,988.26
2018-01-17T06:43:52.336Z,988.27
2018-01-17T06:44:52.381Z,988.24
2018-01-17T06:45:52.440Z,988.29
2018-01-17T06:46:52.453Z,988.25
2018-01-17T06:47:52.431Z,988.27
2018-01-17T06:48:52.474Z,988.26
2018-01-17T06:49:52.473Z,988.22
2018-01-17T06:50:52.675Z,988.28
2018-01-17T06:51:52.703Z,988.23
2018-01-17T06:52:52.749Z,988.26
2018-01-17T06:53:52.760Z,988.29
2018-01-17T06:54:53.368Z,988.24
2018-01-17T06:55:53.303Z,988.27
2018-01-17T06:56:53.308Z,988.3
2018-01-17T06:57:53.326Z,988.28
2018-01-17T06:58:53.702Z,988.29
2018-01-17T06:59:53.437Z,988.34
2018-01-17T07:00:53.640Z,988.35
2018-01-17T07:01:54.072Z,988.32
2018-01-17T07:02:54.072Z,988.33
2018-01-17T07:03:54.362Z,988.27
2018-01-17T07:04:54.466Z,988.31
2018-01-17T07:05:54.333Z,988.3
2018-01-17T07:06:54.638Z,988.3
2018-01-17T07:07:54.722Z,988.28
2018-01-17T07:08:55.058Z,988.3
2018-01-17T07:09:55.398Z,988.34
2018-01-17T07:10:55.111Z,988.34
2018-01-17T07:11:55.538Z,988.35
2018-01-17T07:12:55.592Z,988.31
2018-01-17T07:13:55.594Z,988.35
2018-01-17T07:14:55.267Z,988.33
2018-01-17T07:15:55.496Z,988.32
2018-01-17T07:16:55.260Z,988.35
2018-01-17T07:17:55.355Z,988.36
2018-01-17T07:18:55.276Z,988.36
2018-01-17T07:19:55.620Z,988.41
2018-01-17T07:20:55.640Z,988.39
2018-01-17T07:21:56.264Z,988.38
2018-01-17T07:22:56.583Z,988.42
2018-01-17T07:23:56.351Z,988.45
2018-01-17T07:24:56.278Z,988.49
2018-01-17T07:25:56.480Z,988.54
2018-01-17T07:26:57.846Z,988.54
2018-01-17T07:27:57.961Z,988.51
2018-01-17T07:28:57.480Z,988.55
2018-01-17T07:29:57.572Z,988.61
2018-01-17T07:30:57.548Z,988.56
2018-01-17T07:31:57.915Z,988.66
2018-01-17T07:32:57.548Z,988.65
2018-01-17T07:33:57.979Z,988.68
2018-01-17T07:34:58.004Z,988.65
2018-01-17T07:35:59.095Z,988.67
2018-01-17T07:36:58.744Z,988.72
2018-01-17T07:37:58.756Z,988.67
2018-01-17T07:38:59.168Z,988.74
2018-01-17T07:39:58.819Z,988.73
2018-01-17T07:40:59.330Z,988.72
2018-01-17T07:41:59.500Z,988.72
2018-01-17T07:42:59.458Z,988.72
2018-01-17T07:43:59.383Z,988.69
2018-01-17T07:44:59.804Z,988.72
2018-01-17T07:45:59.740Z,988.79
2018-01-17T07:46:59.627Z,988.8
2018-01-17T07:47:59.442Z,988.78
2018-01-17T07:48:59.493Z,988.75
2018-01-17T07:49:59.461Z,988.78
2018-01-17T07:50:59.533Z,988.81
2018-01-17T07:51:59.521Z,988.81
2018-01-17T07:52:59.819Z,988.81
2018-01-17T07:53:59.647Z,988.75
2018-01-17T07:54:59.609Z,988.8
2018-01-17T07:55:59.620Z,988.77
2018-01-17T07:56:59.869Z,988.79
2018-01-17T07:58:00.043Z,988.81
2018-01-17T07:58:59.959Z,988.77
2018-01-17T07:59:59.950Z,988.78
2018-01-17T08:00:59.983Z,988.77
2018-01-17T08:02:00.111Z,988.8
2018-01-17T08:03:00.128Z,988.8
2018-01-17T08:04:00.172Z,988.78
2018-01-17T08:05:00.257Z,988.77
2018-01-17T08:06:00.204Z,988.82
2018-01-17T08:07:00.444Z,988.81
2018-01-17T08:08:00.468Z,988.78
2018-01-17T08:09:00.505Z,988.85
2018-01-17T08:10:00.650Z,988.87
2018-01-17T08:11:00.514Z,988.9
2018-01-17T08:12:00.518Z,988.89
2018-01-17T08:13:00.941Z,988.9
2018-01-17T08:14:00.785Z,988.87
2018-01-17T08:15:00.584Z,988.96
2018-01-17T08:16:00.717Z,988.97
2018-01-17T08:17:01.021Z,988.99
2018-01-17T08:18:00.985Z,988.98
2018-01-17T08:19:01.012Z,989.05
2018-01-17T08:20:01.023Z,989.01
2018-01-17T08:21:01.062Z,989.02
2018-01-17T08:22:02.106Z,989.03
2018-01-17T08:23:01.914Z,989.02
2018-01-17T08:24:01.895Z,989.02
2018-01-17T08:25:02.349Z,989.02
2018-01-17T08:26:02.284Z,989.03
2018-01-17T08:27:02.370Z,989.06
2018-01-17T08:28:02.548Z,989.08
2018-01-17T08:29:02.534Z,989.09
2018-01-17T08:30:02.905Z,989.12
2018-01-17T08:31:03.267Z,989.15
2018-01-17T08:32:03.362Z,989.18
2018-01-17T08:33:03.314Z,989.17
2018-01-17T08:34:03.518Z,989.19
2018-01-17T08:35:03.900Z,989.2
2018-01-17T08:36:03.833Z,989.19
2018-01-17T08:37:04.019Z,989.24
2018-01-17T08:38:04.026Z,989.26
2018-01-17T08:39:04.038Z,989.27
2018-01-17T08:40:04.616Z,989.26
2018-01-17T08:41:04.513Z,989.23
2018-01-17T08:42:04.541Z,989.23
2018-01-17T08:43:04.543Z,989.21
2018-01-17T08:44:04.765Z,989.27
2018-01-17T08:45:05.083Z,989.24
2018-01-17T08:46:05.122Z,989.23
2018-01-17T08:47:05.196Z,989.23
2018-01-17T08:48:05.143Z,989.24
2018-01-17T08:49:05.271Z,989.19
2018-01-17T08:50:05.305Z,989.16
2018-01-17T08:51:05.302Z,989.17
2018-01-17T08:52:05.614Z,989.13
2018-01-17T08:53:05.644Z,989.19
2018-01-17T08:54:05.730Z,989.23
2018-01-17T08:55:05.599Z,989.31
2018-01-17T08:56:05.736Z,989.25
2018-01-17T08:57:05.383Z,989.26
2018-01-17T08:58:05.559Z,989.32
2018-01-17T08:59:05.589Z,989.34
2018-01-17T09:00:20.471Z,989.38
2018-01-17T09:01:20.480Z,989.42
2018-01-17T09:02:20.633Z,989.48
2018-01-17T09:03:20.819Z,989.44
2018-01-17T09:04:21.280Z,989.49
2018-01-17T09:05:21.329Z,989.46
2018-01-17T09:06:21.314Z,989.55
2018-01-17T09:07:21.525Z,989.6
2018-01-17T09:08:21.608Z,989.55
2018-01-17T09:09:21.673Z,989.56
2018-01-17T09:10:21.940Z,989.59
2018-01-17T09:11:21.621Z,989.65
2018-01-17T09:12:22.060Z,989.65
2018-01-17T09:13:22.069Z,989.8
2018-01-17T09:14:22.329Z,989.76
2018-01-17T09:15:22.338Z,989.74
2018-01-17T09:16:22.356Z,989.79
2018-01-17T09:17:22.487Z,989.93
2018-01-17T09:18:22.875Z,989.88
2018-01-17T09:19:23.096Z,989.89
2018-01-17T09:20:23.559Z,989.92
2018-01-17T09:21:23.468Z,989.94
2018-01-17T09:22:23.482Z,990.04
2018-01-17T09:23:23.592Z,990.02
2018-01-17T09:24:23.944Z,990.09
2018-01-17T09:25:24.040Z,990.11
2018-01-17T09:26:24.501Z,990.1
2018-01-17T09:27:24.650Z,990.15
2018-01-17T09:28:25.029Z,990.16
2018-01-17T09:29:25.103Z,990.16
2018-01-17T09:30:25.066Z,990.18
2018-01-17T09:31:25.315Z,990.26
2018-01-17T09:32:25.420Z,990.22
2018-01-17T09:33:25.458Z,990.21
2018-01-17T09:34:25.632Z,990.26
2018-01-17T09:35:25.790Z,990.24
2018-01-17T09:36:25.818Z,990.26
2018-01-17T09:37:25.837Z,990.3
2018-01-17T09:38:25.859Z,990.27
2018-01-17T09:39:26.333Z,990.32
2018-01-17T09:40:26.337Z,990.33
2018-01-17T09:41:26.346Z,990.32
2018-01-17T09:42:26.391Z,990.3
2018-01-17T09:43:26.390Z,990.34
2018-01-17T09:44:26.642Z,990.33
2018-01-17T09:45:26.672Z,990.31
2018-01-17T09:46:26.460Z,990.38
2018-01-17T09:47:26.905Z,990.3
2018-01-17T09:48:26.924Z,990.32
2018-01-17T09:49:27.082Z,990.37
2018-01-17T09:50:27.095Z,990.35
2018-01-17T09:51:27.114Z,990.39
2018-01-17T09:52:27.264Z,990.43
2018-01-17T09:53:27.461Z,990.44
2018-01-17T09:54:27.684Z,990.42
2018-01-17T09:55:27.598Z,990.44
2018-01-17T09:56:28.083Z,990.49
2018-01-17T09:57:28.456Z,990.5
2018-01-17T09:58:28.212Z,990.47
2018-01-17T09:59:28.545Z,990.52
2018-01-17T10:00:28.447Z,990.55
2018-01-17T10:01:29.463Z,990.58
2018-01-17T10:02:28.978Z,990.55
2018-01-17T10:03:29.265Z,990.51
2018-01-17T10:04:29.314Z,990.6
2018-01-17T10:05:29.285Z,990.58
2018-01-17T10:06:29.771Z,990.6
2018-01-17T10:07:29.777Z,990.59
2018-01-17T10:08:30.233Z,990.63
2018-01-17T10:09:30.248Z,990.58
2018-01-17T10:10:30.302Z,990.59
2018-01-17T10:11:30.306Z,990.61
2018-01-17T10:12:30.359Z,990.63
2018-01-17T10:13:30.532Z,990.63
2018-01-17T10:14:30.556Z,990.66
2018-01-17T10:15:30.395Z,990.65
2018-01-17T10:16:30.420Z,990.62
2018-01-17T10:17:30.694Z,990.58
2018-01-17T10:18:30.696Z,990.64
2018-01-17T10:19:30.787Z,990.65
2018-01-17T10:20:30.732Z,990.71
2018-01-17T10:21:30.764Z,990.75
2018-01-17T10:22:30.774Z,990.7
2018-01-17T10:23:30.787Z,990.7
2018-01-17T10:24:30.863Z,990.69
2018-01-17T10:25:30.837Z,990.75
2018-01-17T10:26:30.866Z,990.7
2018-01-17T10:27:31.367Z,990.8
2018-01-17T10:28:31.611Z,990.81
2018-01-17T10:29:31.964Z,990.75
2018-01-17T10:30:32.001Z,990.77
2018-01-17T10:31:32.076Z,990.76
2018-01-17T10:32:32.024Z,990.75
2018-01-17T10:33:32.057Z,990.74
2018-01-17T10:34:32.084Z,990.78
2018-01-17T10:35:32.095Z,990.79
2018-01-17T10:36:32.123Z,990.76
2018-01-17T10:37:32.147Z,990.71
2018-01-17T10:38:32.167Z,990.78
2018-01-17T10:39:32.573Z,990.71
2018-01-17T10:40:32.599Z,990.78
2018-01-17T10:41:32.618Z,990.75
2018-01-17T10:42:32.640Z,990.77
2018-01-17T10:43:32.667Z,990.85
2018-01-17T10:44:32.694Z,990.79
2018-01-17T10:45:32.716Z,990.88
2018-01-17T10:46:32.738Z,990.91
2018-01-17T10:47:32.957Z,990.86
2018-01-17T10:48:32.976Z,990.89
2018-01-17T10:49:33.006Z,990.97
2018-01-17T10:50:33.029Z,990.95
2018-01-17T10:51:33.217Z,990.92
2018-01-17T10:52:33.269Z,990.93
2018-01-17T10:53:33.359Z,990.95
2018-01-17T10:54:33.625Z,990.91
2018-01-17T10:55:33.640Z,990.91
2018-01-17T10:56:34.307Z,990.96
2018-01-17T10:57:34.314Z,990.96
2018-01-17T10:58:34.312Z,990.95
2018-01-17T10:59:34.754Z,990.98
2018-01-17T11:00:34.653Z,991.06
2018-01-17T11:01:35.217Z,991.01
2018-01-17T11:02:35.193Z,991.11
2018-01-17T11:03:35.211Z,991.05
2018-01-17T11:04:35.229Z,991.13
2018-01-17T11:05:36.216Z,991.11
2018-01-17T11:06:35.844Z,991.04
2018-01-17T11:07:35.999Z,991.08
2018-01-17T11:08:36.436Z,991.04
2018-01-17T11:09:36.403Z,991.1
2018-01-17T11:10:36.428Z,991.09
2018-01-17T11:11:36.459Z,991.1
2018-01-17T11:12:36.520Z,991.19
2018-01-17T11:13:36.605Z,991.14
2018-01-17T11:14:36.830Z,991.14
2018-01-17T11:15:36.847Z,991.11
2018-01-17T11:16:36.980Z,991.17
2018-01-17T11:17:37.116Z,991.22
2018-01-17T11:18:37.172Z,991.16
2018-01-17T11:19:37.169Z,991.13
2018-01-17T11:20:37.408Z,991.21
2018-01-17T11:21:37.474Z,991.2
2018-01-17T11:22:37.446Z,991.15
2018-01-17T11:23:37.457Z,991.19
2018-01-17T11:24:37.532Z,991.25
2018-01-17T11:25:37.521Z,991.24
2018-01-17T11:26:37.678Z,991.2
2018-01-17T11:27:38.288Z,991.23
2018-01-17T11:28:38.230Z,991.19
2018-01-17T11:29:37.947Z,991.25
2018-01-17T11:30:37.991Z,991.22
2018-01-17T11:31:38.045Z,991.22
2018-01-17T11:32:38.465Z,991.3
2018-01-17T11:33:38.461Z,991.3
2018-01-17T11:34:38.453Z,991.36
2018-01-17T11:35:38.151Z,991.33
2018-01-17T11:36:38.265Z,991.32
2018-01-17T11:37:38.196Z,991.4
2018-01-17T11:38:38.247Z,991.37
2018-01-17T11:39:38.613Z,991.41
2018-01-17T11:40:38.181Z,991.42
2018-01-17T11:41:38.777Z,991.44
2018-01-17T11:42:38.983Z,991.35
2018-01-17T11:43:39.017Z,991.36
2018-01-17T11:44:39.019Z,991.34
2018-01-17T11:45:39.038Z,991.37
2018-01-17T11:46:39.171Z,991.41
2018-01-17T11:47:39.298Z,991.44
2018-01-17T11:48:39.207Z,991.46
2018-01-17T11:49:39.514Z,991.39
2018-01-17T11:50:39.573Z,991.48
2018-01-17T11:51:39.395Z,991.44
2018-01-17T11:52:39.407Z,991.52
2018-01-17T11:53:39.662Z,991.52
2018-01-17T11:54:39.672Z,991.5
2018-01-17T11:55:39.688Z,991.47
2018-01-17T11:56:39.718Z,991.48
2018-01-17T11:57:39.880Z,991.54
2018-01-17T11:58:40.165Z,991.55
2018-01-17T11:59:40.216Z,991.52
2018-01-17T12:00:40.264Z,991.55
2018-01-17T12:01:40.795Z,991.57
2018-01-17T12:02:40.681Z,991.54
2018-01-17T12:03:40.805Z,991.59
2018-01-17T12:04:40.811Z,991.58
2018-01-17T12:05:40.860Z,991.56
2018-01-17T12:06:40.947Z,991.6
2018-01-17T12:07:41.251Z,991.6
2018-01-17T12:08:41.297Z,991.66
2018-01-17T12:09:41.331Z,991.57
2018-01-17T12:10:41.396Z,991.64
2018-01-17T12:11:41.635Z,991.58
2018-01-17T12:12:42.016Z,991.64
2018-01-17T12:13:42.324Z,991.66
2018-01-17T12:14:42.588Z,991.68
2018-01-17T12:15:42.607Z,991.62
2018-01-17T12:16:43.104Z,991.7
2018-01-17T12:17:43.405Z,991.7
2018-01-17T12:18:43.508Z,991.77
2018-01-17T12:19:43.906Z,991.77
2018-01-17T12:20:44.222Z,991.69
2018-01-17T12:21:44.244Z,991.72
2018-01-17T12:22:44.263Z,991.69
2018-01-17T12:23:44.390Z,991.68
2018-01-17T12:24:44.948Z,991.76
2018-01-17T12:25:45.063Z,991.75
2018-01-17T12:26:45.022Z,991.79
2018-01-17T12:27:45.249Z,991.81
2018-01-17T12:28:45.387Z,991.84
2018-01-17T12:29:45.474Z,991.76
2018-01-17T12:30:45.491Z,991.8
2018-01-17T12:31:45.515Z,991.81
2018-01-17T12:32:45.984Z,991.79
2018-01-17T12:33:45.644Z,991.79
2018-01-17T12:34:46.604Z,991.81